createdAt,value
2018-08-24T00:00:23.792Z,20.00
2018-08-24T00:05:28.137Z,20.00
2018-08-24T00:10:33.332Z,19.90
2018-08-24T00:15:37.881Z,19.90
2018-08-24T00:20:42.431Z,19.90
2018-08-24T00:25:46.716Z,19.90
2018-08-24T00:30:51.711Z,19.80
2018-08-24T00:35:56.066Z,19.90
2018-08-24T00:41:00.443Z,19.80
2018-08-24T00:46:05.644Z,19.70
2018-08-24T00:51:10.224Z,19.80
2018-08-24T00:56:14.754Z,19.70
2018-08-24T01:01:19.878Z,19.60
2018-08-24T01:06:25.253Z,19.50
2018-08-24T01:11:34.994Z,19.60
2018-08-24T01:16:44.509Z,19.40
2018-08-24T01:21:49.057Z,19.30
2018-08-24T01:27:04.990Z,19.30
2018-08-24T01:32:11.238Z,19.20
2018-08-24T01:37:15.788Z,19.20
2018-08-24T01:42:20.232Z,19.20
2018-08-24T01:47:25.067Z,19.20
2018-08-24T01:52:29.481Z,19.30
2018-08-24T01:57:33.910Z,19.30
2018-08-24T02:02:38.499Z,19.50
2018-08-24T02:07:42.964Z,19.50
2018-08-24T02:12:52.284Z,19.40
2018-08-24T02:18:01.634Z,19.30
2018-08-24T02:23:11.256Z,19.20
2018-08-24T02:28:15.759Z,19.20
2018-08-24T02:33:20.220Z,19.10
2018-08-24T02:38:24.551Z,19.10
2018-08-24T02:43:29.021Z,19.00
2018-08-24T02:48:33.388Z,19.10
2018-08-24T02:53:38.597Z,19.00
2018-08-24T02:58:42.978Z,18.90
2018-08-24T03:03:47.299Z,18.90
2018-08-24T03:08:52.539Z,18.80
2018-08-24T03:13:56.903Z,18.70
2018-08-24T03:19:01.265Z,18.30
2018-08-24T03:24:06.722Z,17.80
2018-08-24T03:29:11.255Z,17.50
2018-08-24T03:34:15.805Z,17.30
2018-08-24T03:39:20.284Z,17.10
2018-08-24T03:44:24.890Z,17.00
2018-08-24T03:49:29.453Z,17.00
2018-08-24T03:54:33.897Z,16.90
2018-08-24T03:59:38.311Z,16.90
2018-08-24T04:04:42.831Z,16.90
2018-08-24T04:09:47.195Z,16.90
2018-08-24T04:14:51.503Z,16.80
2018-08-24T04:19:56.060Z,16.70
2018-08-24T04:25:00.548Z,16.60
2018-08-24T04:30:05.039Z,16.50
2018-08-24T04:35:10.130Z,16.50
2018-08-24T04:40:14.521Z,16.40
2018-08-24T04:45:19.125Z,16.40
2018-08-24T04:50:25.308Z,16.40
2018-08-24T04:55:29.676Z,16.40
2018-08-24T05:00:34.107Z,16.30
2018-08-24T05:05:38.977Z,16.30
2018-08-24T05:10:44.128Z,16.30
2018-08-24T05:15:48.461Z,16.30
2018-08-24T05:20:53.033Z,16.40
2018-08-24T05:25:57.816Z,16.40
2018-08-24T05:31:02.441Z,16.50
2018-08-24T05:36:07.050Z,16.50
2018-08-24T05:41:11.405Z,16.50
2018-08-24T05:46:16.525Z,16.60
2018-08-24T05:51:20.885Z,16.60
2018-08-24T05:56:25.429Z,16.60
2018-08-24T06:01:29.890Z,16.60
2018-08-24T06:06:34.915Z,16.70
2018-08-24T06:11:39.460Z,16.80
2018-08-24T06:16:49.100Z,16.80
2018-08-24T06:21:53.707Z,16.80
2018-08-24T06:26:58.362Z,16.70
2018-08-24T06:32:03.059Z,16.80
2018-08-24T06:37:08.316Z,16.90
2018-08-24T06:42:13.046Z,16.80
2018-08-24T06:47:17.636Z,16.80
2018-08-24T06:52:22.357Z,16.90
2018-08-24T06:57:27.139Z,17.00
2018-08-24T07:02:31.682Z,17.20
2018-08-24T07:07:36.432Z,17.20
2018-08-24T07:12:40.973Z,17.40
2018-08-24T07:17:50.719Z,17.20
2018-08-24T07:22:55.141Z,17.10
2018-08-24T07:27:59.731Z,17.20
2018-08-24T07:33:04.252Z,17.30
2018-08-24T07:38:08.702Z,17.30
2018-08-24T07:43:13.377Z,17.40
2018-08-24T07:48:17.784Z,17.50
2018-08-24T07:53:22.250Z,17.70
2018-08-24T07:58:26.841Z,18.00
2018-08-24T08:03:31.390Z,18.30
2018-08-24T08:08:36.105Z,18.50
2018-08-24T08:13:41.189Z,18.30
2018-08-24T08:18:46.380Z,18.10
2018-08-24T08:23:50.857Z,18.00
2018-08-24T08:28:55.278Z,17.90
2018-08-24T08:33:59.998Z,18.00
2018-08-24T08:39:05.752Z,18.30
2018-08-24T08:44:10.845Z,18.60
2018-08-24T08:49:15.155Z,18.70
2018-08-24T08:54:20.001Z,18.90
2018-08-24T08:59:24.420Z,18.90
2018-08-24T09:04:28.968Z,18.60
2018-08-24T09:09:33.432Z,18.30
2018-08-24T09:14:38.702Z,18.00
2018-08-24T09:19:48.260Z,17.90
2018-08-24T09:25:01.074Z,17.80
2018-08-24T09:30:06.559Z,17.70
2018-08-24T09:35:11.169Z,16.30
2018-08-24T09:40:15.695Z,15.40
2018-08-24T09:45:20.137Z,15.00
2018-08-24T09:50:29.554Z,15.00
2018-08-24T09:55:39.727Z,15.20
2018-08-24T10:00:49.405Z,15.70
2018-08-24T10:06:00.287Z,16.40
2018-08-24T10:11:05.072Z,17.00
2018-08-24T10:16:09.465Z,17.70
2018-08-24T10:21:14.044Z,18.10
2018-08-24T10:26:19.846Z,18.10
2018-08-24T10:31:24.286Z,18.20
2018-08-24T10:36:29.159Z,18.30
2018-08-24T10:41:34.304Z,18.40
2018-08-24T10:46:54.545Z,18.60
2018-08-24T10:52:03.152Z,18.60
2018-08-24T10:57:07.562Z,18.60
2018-08-24T11:02:12.025Z,18.30
2018-08-24T11:07:16.731Z,18.50
2018-08-24T11:12:21.253Z,18.30
2018-08-24T11:17:25.909Z,18.90
2018-08-24T11:22:30.980Z,19.20
2018-08-24T11:27:35.739Z,19.10
2018-08-24T11:32:40.726Z,19.30
2018-08-24T11:37:45.191Z,19.40
2018-08-24T11:42:49.778Z,19.60
2018-08-24T11:47:54.213Z,19.70
2018-08-24T11:52:58.866Z,19.70
2018-08-24T11:58:03.252Z,20.50
2018-08-24T12:03:08.537Z,20.90
2018-08-24T12:08:13.416Z,20.40
2018-08-24T12:13:17.985Z,20.30
2018-08-24T12:18:22.536Z,20.40
2018-08-24T12:23:28.933Z,20.60
2018-08-24T12:28:35.764Z,21.40
2018-08-24T12:33:42.274Z,21.90
2018-08-24T12:38:49.081Z,21.30
2018-08-24T12:43:56.006Z,20.80
2018-08-24T12:49:04.007Z,21.30
2018-08-24T12:54:10.913Z,20.90
2018-08-24T12:59:18.435Z,20.40
2018-08-24T13:04:25.653Z,20.90
2018-08-24T13:09:32.346Z,21.50
2018-08-24T13:14:40.125Z,20.40
2018-08-24T13:19:46.908Z,20.50
2018-08-24T13:24:53.183Z,20.90
2018-08-24T13:29:59.780Z,21.00
2018-08-24T13:44:46.920Z,22.70
2018-08-24T13:49:54.757Z,22.50
2018-08-24T13:55:02.167Z,23.90
2018-08-24T14:00:10.148Z,24.20
2018-08-24T14:05:17.664Z,23.90
2018-08-24T14:10:25.012Z,23.90
2018-08-24T14:15:34.404Z,23.40
2018-08-24T14:20:42.837Z,22.30
2018-08-24T14:25:49.081Z,21.40
2018-08-24T14:30:57.052Z,20.80
2018-08-24T14:36:05.027Z,21.30
2018-08-24T14:41:13.155Z,21.50
2018-08-24T14:46:20.926Z,21.20
2018-08-24T14:51:26.659Z,21.00
2018-08-24T14:56:31.249Z,20.90
2018-08-24T15:01:35.644Z,20.90
2018-08-24T15:06:40.356Z,20.70
2018-08-24T15:11:44.774Z,20.40
2018-08-24T15:16:49.262Z,20.50
2018-08-24T15:21:53.785Z,20.40
2018-08-24T15:26:58.209Z,20.50
2018-08-24T15:32:02.788Z,20.50
2018-08-24T15:37:07.177Z,20.70
2018-08-24T15:42:11.699Z,20.60
2018-08-24T15:47:16.732Z,20.40
2018-08-24T15:52:21.293Z,20.60
2018-08-24T15:57:25.869Z,20.80
2018-08-24T16:02:30.363Z,20.50
2018-08-24T16:07:38.387Z,20.10
2018-08-24T16:12:42.929Z,19.90
2018-08-24T16:17:51.647Z,19.70
2018-08-24T16:22:57.022Z,19.70
2018-08-24T16:28:01.445Z,19.60
2018-08-24T16:33:05.809Z,19.40
2018-08-24T16:38:10.494Z,19.30
2018-08-24T16:43:15.478Z,19.20
2018-08-24T16:48:20.008Z,19.10
2018-08-24T16:53:25.092Z,19.00
2018-08-24T16:58:29.719Z,18.90
2018-08-24T17:03:34.159Z,18.90
2018-08-24T17:08:38.612Z,18.80
2018-08-24T17:13:43.108Z,18.80
2018-08-24T17:18:47.596Z,18.70
2018-08-24T17:23:52.127Z,18.60
2018-08-24T17:28:56.681Z,18.60
2018-08-24T17:34:01.141Z,18.50
2018-08-24T17:39:08.870Z,18.40
2018-08-24T17:44:13.978Z,18.30
2018-08-24T17:49:18.368Z,18.30
2018-08-24T17:54:23.620Z,18.20
2018-08-24T17:59:28.176Z,18.20
2018-08-24T18:04:32.951Z,18.10
2018-08-24T18:09:37.786Z,18.00
2018-08-24T18:14:42.782Z,17.90
2018-08-24T18:19:47.261Z,17.80
2018-08-24T18:24:51.756Z,17.70
2018-08-24T18:29:56.361Z,17.60
2018-08-24T18:35:01.287Z,17.50
2018-08-24T18:40:06.091Z,17.40
2018-08-24T18:45:10.875Z,17.50
2018-08-24T18:50:15.551Z,17.40
2018-08-24T18:55:26.240Z,17.30
2018-08-24T19:00:31.707Z,17.30
2018-08-24T19:05:38.201Z,17.20
2018-08-24T19:11:06.811Z,17.20
2018-08-24T19:17:22.116Z,17.20
2018-08-24T19:22:31.947Z,17.10
2018-08-24T19:27:42.619Z,17.00
2018-08-24T19:32:51.519Z,17.00
2018-08-24T19:37:58.319Z,16.90
2018-08-24T19:43:04.399Z,16.80
2018-08-24T19:48:14.693Z,16.70
2018-08-24T19:53:21.168Z,16.70
2018-08-24T19:58:32.265Z,16.60
2018-08-24T20:03:39.065Z,16.50
2018-08-24T20:08:49.853Z,16.50
2018-08-24T20:13:56.647Z,16.50
2018-08-24T20:19:12.256Z,16.30
2018-08-24T20:24:19.237Z,16.20
2018-08-24T20:29:24.930Z,16.10
2018-08-24T20:45:46.460Z,15.90
2018-08-24T20:50:52.744Z,15.70
2018-08-24T20:56:00.258Z,15.60
2018-08-24T21:01:18.731Z,15.40
2018-08-24T21:06:26.144Z,15.30
2018-08-24T21:11:53.010Z,15.20
2018-08-24T21:16:59.585Z,15.20
2018-08-24T21:22:05.583Z,15.10
2018-08-24T21:27:12.073Z,15.10
2018-08-24T21:32:17.543Z,15.10
2018-08-24T21:37:26.078Z,15.10
2018-08-24T21:42:35.642Z,15.10
2018-08-24T21:47:41.112Z,15.10
2018-08-24T21:52:53.333Z,15.00
2018-08-24T21:57:59.788Z,14.90
2018-08-24T22:03:07.035Z,14.90
2018-08-24T22:08:12.907Z,14.80
2018-08-24T22:13:19.602Z,14.70
2018-08-24T22:18:30.091Z,14.70
2018-08-24T22:23:35.641Z,14.60
2018-08-24T22:28:42.251Z,14.60
2018-08-24T22:33:49.353Z,14.50
2018-08-24T22:41:06.202Z,14.50
2018-08-24T22:46:12.392Z,14.50
2018-08-24T22:51:18.264Z,14.50
2018-08-24T22:56:36.528Z,14.50
2018-08-24T23:01:48.548Z,14.50
2018-08-24T23:06:58.459Z,14.50
2018-08-24T23:12:30.809Z,14.40
2018-08-24T23:17:37.501Z,14.40
2018-08-24T23:22:43.291Z,14.40
2018-08-24T23:27:49.572Z,14.40
2018-08-24T23:32:56.370Z,14.40
2018-08-24T23:38:01.442Z,14.40
2018-08-24T23:43:06.886Z,14.40
2018-08-24T23:48:12.333Z,14.40
2018-08-24T23:53:18.542Z,14.50
2018-08-24T23:58:23.579Z,14.50
